sensor_id;sensor_type;location;lat;lon;timestamp;temperature;humidity
74178;DHT22;62540;48.456;-4.456;2022-09-09T00:00:20;18.87;74.06
74178;DHT22;62540;48.456;-4.456;2022-09-09T00:07:54;18.85;73.98
74178;DHT22;62540;48.456;-4.456;2022-09-09T00:13:18;18.85;74.06
74178;DHT22;62540;48.456;-4.456;2022-09-09T00:16:02;18.85;74.11
74178;DHT22;62540;48.456;-4.456;2022-09-09T00:21:13;18.83;74.21
74178;DHT22;62540;48.456;-4.456;2022-09-09T00:23:47;18.78;74.85
74178;DHT22;62540;48.456;-4.456;2022-09-09T00:31:33;18.78;74.53
74178;DHT22;62540;48.456;-4.456;2022-09-09T00:34:13;18.77;74.88
74178;DHT22;62540;48.456;-4.456;2022-09-09T00:36:40;18.79;74.66
74178;DHT22;62540;48.456;-4.456;2022-09-09T00:39:13;18.77;75.21
74178;DHT22;62540;48.456;-4.456;2022-09-09T00:44:31;18.78;74.87
74178;DHT22;62540;48.456;-4.456;2022-09-09T00:55:28;18.71;75.02
74178;DHT22;62540;48.456;-4.456;2022-09-09T00:57:59;18.71;75.07
74178;DHT22;62540;48.456;-4.456;2022-09-09T01:00:31;18.74;75.21
74178;DHT22;62540;48.456;-4.456;2022-09-09T01:08:41;18.79;74.72
74178;DHT22;62540;48.456;-4.456;2022-09-09T01:11:20;18.78;74.33
74178;DHT22;62540;48.456;-4.456;2022-09-09T01:13:50;18.74;74.76
74178;DHT22;62540;48.456;-4.456;2022-09-09T01:16:18;18.72;74.78
74178;DHT22;62540;48.456;-4.456;2022-09-09T01:18:48;18.72;74.24
74178;DHT22;62540;48.456;-4.456;2022-09-09T01:21:38;18.72;74.21
74178;DHT22;62540;48.456;-4.456;2022-09-09T01:27:14;18.68;73.95
74178;DHT22;62540;48.456;-4.456;2022-09-09T01:29:40;18.67;74.29
74178;DHT22;62540;48.456;-4.456;2022-09-09T01:35:11;18.64;74.20
74178;DHT22;62540;48.456;-4.456;2022-09-09T01:37:38;18.67;74.12
74178;DHT22;62540;48.456;-4.456;2022-09-09T01:40:03;18.67;73.88
74178;DHT22;62540;48.456;-4.456;2022-09-09T01:42:29;18.69;73.89
74178;DHT22;62540;48.456;-4.456;2022-09-09T01:44:54;18.64;73.56
74178;DHT22;62540;48.456;-4.456;2022-09-09T01:47:20;18.64;73.66
74178;DHT22;62540;48.456;-4.456;2022-09-09T01:49:45;18.63;73.68
74178;DHT22;62540;48.456;-4.456;2022-09-09T01:52:11;18.63;73.66
74178;DHT22;62540;48.456;-4.456;2022-09-09T01:54:36;18.61;73.57
74178;DHT22;62540;48.456;-4.456;2022-09-09T02:02:14;18.58;73.77
74178;DHT22;62540;48.456;-4.456;2022-09-09T02:04:48;18.58;73.61
74178;DHT22;62540;48.456;-4.456;2022-09-09T02:07:38;18.57;73.49
74178;DHT22;62540;48.456;-4.456;2022-09-09T02:10:20;18.60;73.32
74178;DHT22;62540;48.456;-4.456;2022-09-09T02:13:09;18.58;73.73
74178;DHT22;62540;48.456;-4.456;2022-09-09T02:18:40;18.58;73.72
74178;DHT22;62540;48.456;-4.456;2022-09-09T02:21:07;18.58;74.06
74178;DHT22;62540;48.456;-4.456;2022-09-09T02:23:34;18.58;73.91
74178;DHT22;62540;48.456;-4.456;2022-09-09T02:26:01;18.57;73.71
74178;DHT22;62540;48.456;-4.456;2022-09-09T02:28:31;18.58;73.94
74178;DHT22;62540;48.456;-4.456;2022-09-09T02:30:59;18.57;73.95
74178;DHT22;62540;48.456;-4.456;2022-09-09T02:33:27;18.60;73.78
74178;DHT22;62540;48.456;-4.456;2022-09-09T02:35:54;18.58;74.08
74178;DHT22;62540;48.456;-4.456;2022-09-09T02:38:25;18.60;74.10
74178;DHT22;62540;48.456;-4.456;2022-09-09T02:40:51;18.63;73.93
74178;DHT22;62540;48.456;-4.456;2022-09-09T02:43:17;18.63;73.86
74178;DHT22;62540;48.456;-4.456;2022-09-09T02:46:09;18.61;74.13
74178;DHT22;62540;48.456;-4.456;2022-09-09T02:48:59;18.56;74.17
74178;DHT22;62540;48.456;-4.456;2022-09-09T02:51:49;18.48;74.20
74178;DHT22;62540;48.456;-4.456;2022-09-09T02:54:27;18.47;73.99
74178;DHT22;62540;48.456;-4.456;2022-09-09T02:57:01;18.47;73.97
74178;DHT22;62540;48.456;-4.456;2022-09-09T02:59:29;18.46;74.08
74178;DHT22;62540;48.456;-4.456;2022-09-09T03:01:55;18.44;74.40
74178;DHT22;62540;48.456;-4.456;2022-09-09T03:04:21;18.47;74.29
74178;DHT22;62540;48.456;-4.456;2022-09-09T03:06:47;18.46;74.20
74178;DHT22;62540;48.456;-4.456;2022-09-09T03:09:12;18.47;74.30
74178;DHT22;62540;48.456;-4.456;2022-09-09T03:11:37;18.47;74.16
74178;DHT22;62540;48.456;-4.456;2022-09-09T03:14:04;18.50;74.15
74178;DHT22;62540;48.456;-4.456;2022-09-09T03:16:29;18.48;74.51
74178;DHT22;62540;48.456;-4.456;2022-09-09T03:18:55;18.46;74.76
74178;DHT22;62540;48.456;-4.456;2022-09-09T03:21:20;18.47;74.57
74178;DHT22;62540;48.456;-4.456;2022-09-09T03:23:46;18.47;74.67
74178;DHT22;62540;48.456;-4.456;2022-09-09T03:26:12;18.48;74.21
74178;DHT22;62540;48.456;-4.456;2022-09-09T03:28:39;18.50;74.23
74178;DHT22;62540;48.456;-4.456;2022-09-09T03:31:05;18.46;74.11
74178;DHT22;62540;48.456;-4.456;2022-09-09T03:33:31;18.46;74.15
74178;DHT22;62540;48.456;-4.456;2022-09-09T03:35:57;18.46;74.19
74178;DHT22;62540;48.456;-4.456;2022-09-09T03:38:23;18.46;74.14
74178;DHT22;62540;48.456;-4.456;2022-09-09T03:40:50;18.47;73.97
74178;DHT22;62540;48.456;-4.456;2022-09-09T03:43:16;18.50;73.74
74178;DHT22;62540;48.456;-4.456;2022-09-09T03:45:46;18.44;73.86
74178;DHT22;62540;48.456;-4.456;2022-09-09T03:48:15;18.43;74.26
74178;DHT22;62540;48.456;-4.456;2022-09-09T03:50:52;18.40;74.17
74178;DHT22;62540;48.456;-4.456;2022-09-09T03:53:20;18.40;74.23
74178;DHT22;62540;48.456;-4.456;2022-09-09T03:55:48;18.41;73.81
74178;DHT22;62540;48.456;-4.456;2022-09-09T03:58:14;18.43;73.84
74178;DHT22;62540;48.456;-4.456;2022-09-09T04:00:40;18.38;74.02
74178;DHT22;62540;48.456;-4.456;2022-09-09T04:03:11;18.43;73.92
74178;DHT22;62540;48.456;-4.456;2022-09-09T04:05:38;18.44;73.84
74178;DHT22;62540;48.456;-4.456;2022-09-09T04:08:08;18.43;74.05
74178;DHT22;62540;48.456;-4.456;2022-09-09T04:10:33;18.41;73.89
74178;DHT22;62540;48.456;-4.456;2022-09-09T04:13:01;18.44;73.91
74178;DHT22;62540;48.456;-4.456;2022-09-09T04:15:26;18.41;73.90
74178;DHT22;62540;48.456;-4.456;2022-09-09T04:17:53;18.43;74.06
74178;DHT22;62540;48.456;-4.456;2022-09-09T04:20:18;18.44;74.01
74178;DHT22;62540;48.456;-4.456;2022-09-09T04:22:44;18.48;73.79
74178;DHT22;62540;48.456;-4.456;2022-09-09T04:25:09;18.46;73.96
74178;DHT22;62540;48.456;-4.456;2022-09-09T04:27:35;18.41;74.08
74178;DHT22;62540;48.456;-4.456;2022-09-09T04:30:01;18.46;73.72
74178;DHT22;62540;48.456;-4.456;2022-09-09T04:32:26;18.46;73.74
74178;DHT22;62540;48.456;-4.456;2022-09-09T04:34:52;18.44;74.00
74178;DHT22;62540;48.456;-4.456;2022-09-09T04:37:18;18.46;73.89
74178;DHT22;62540;48.456;-4.456;2022-09-09T04:39:43;18.47;73.62
74178;DHT22;62540;48.456;-4.456;2022-09-09T04:42:08;18.51;73.47
74178;DHT22;62540;48.456;-4.456;2022-09-09T04:44:34;18.50;73.78
74178;DHT22;62540;48.456;-4.456;2022-09-09T04:46:59;18.44;74.11
74178;DHT22;62540;48.456;-4.456;2022-09-09T04:49:24;18.40;74.55
74178;DHT22;62540;48.456;-4.456;2022-09-09T04:51:51;18.40;74.30
74178;DHT22;62540;48.456;-4.456;2022-09-09T04:54:17;18.38;74.63
74178;DHT22;62540;48.456;-4.456;2022-09-09T04:56:42;18.43;74.27
74178;DHT22;62540;48.456;-4.456;2022-09-09T04:59:08;18.43;74.20
74178;DHT22;62540;48.456;-4.456;2022-09-09T05:01:35;18.41;74.25
74178;DHT22;62540;48.456;-4.456;2022-09-09T05:04:01;18.38;74.54
74178;DHT22;62540;48.456;-4.456;2022-09-09T05:06:27;18.41;74.24
74178;DHT22;62540;48.456;-4.456;2022-09-09T05:08:54;18.41;74.35
74178;DHT22;62540;48.456;-4.456;2022-09-09T05:11:22;18.46;74.40
74178;DHT22;62540;48.456;-4.456;2022-09-09T05:13:51;18.44;74.46
74178;DHT22;62540;48.456;-4.456;2022-09-09T05:16:18;18.44;74.60
74178;DHT22;62540;48.456;-4.456;2022-09-09T05:18:44;18.46;74.49
74178;DHT22;62540;48.456;-4.456;2022-09-09T05:21:11;18.43;74.98
74178;DHT22;62540;48.456;-4.456;2022-09-09T05:23:36;18.41;75.38
74178;DHT22;62540;48.456;-4.456;2022-09-09T05:26:03;18.40;76.46
74178;DHT22;62540;48.456;-4.456;2022-09-09T05:28:29;18.30;77.22
74178;DHT22;62540;48.456;-4.456;2022-09-09T05:31:00;18.22;77.21
74178;DHT22;62540;48.456;-4.456;2022-09-09T05:33:27;18.19;77.46
74178;DHT22;62540;48.456;-4.456;2022-09-09T05:36:00;18.19;77.70
74178;DHT22;62540;48.456;-4.456;2022-09-09T05:38:27;18.20;77.49
74178;DHT22;62540;48.456;-4.456;2022-09-09T05:40:53;18.22;77.03
74178;DHT22;62540;48.456;-4.456;2022-09-09T05:43:22;18.23;77.13
74178;DHT22;62540;48.456;-4.456;2022-09-09T05:45:58;18.22;77.40
74178;DHT22;62540;48.456;-4.456;2022-09-09T05:48:27;18.17;77.44
74178;DHT22;62540;48.456;-4.456;2022-09-09T05:50:54;18.20;77.65
74178;DHT22;62540;48.456;-4.456;2022-09-09T05:53:20;18.17;77.08
74178;DHT22;62540;48.456;-4.456;2022-09-09T05:55:45;18.22;77.06
74178;DHT22;62540;48.456;-4.456;2022-09-09T05:58:11;18.27;76.84
74178;DHT22;62540;48.456;-4.456;2022-09-09T06:00:36;18.26;77.12
74178;DHT22;62540;48.456;-4.456;2022-09-09T06:03:03;18.27;76.98
74178;DHT22;62540;48.456;-4.456;2022-09-09T06:05:29;18.26;77.05
74178;DHT22;62540;48.456;-4.456;2022-09-09T06:07:55;18.30;77.05
74178;DHT22;62540;48.456;-4.456;2022-09-09T06:10:22;18.37;77.14
74178;DHT22;62540;48.456;-4.456;2022-09-09T06:12:47;18.38;76.85
74178;DHT22;62540;48.456;-4.456;2022-09-09T06:15:13;18.43;76.94
74178;DHT22;62540;48.456;-4.456;2022-09-09T06:17:38;18.46;77.25
74178;DHT22;62540;48.456;-4.456;2022-09-09T06:20:04;18.51;76.91
74178;DHT22;62540;48.456;-4.456;2022-09-09T06:22:30;18.53;76.72
74178;DHT22;62540;48.456;-4.456;2022-09-09T06:24:56;18.51;76.34
74178;DHT22;62540;48.456;-4.456;2022-09-09T06:27:21;18.54;76.44
74178;DHT22;62540;48.456;-4.456;2022-09-09T06:29:47;18.56;76.64
74178;DHT22;62540;48.456;-4.456;2022-09-09T06:32:13;18.58;76.24
74178;DHT22;62540;48.456;-4.456;2022-09-09T06:34:38;18.64;76.10
74178;DHT22;62540;48.456;-4.456;2022-09-09T06:37:04;18.72;76.30
74178;DHT22;62540;48.456;-4.456;2022-09-09T06:39:31;18.78;75.74
74178;DHT22;62540;48.456;-4.456;2022-09-09T06:41:57;18.81;75.60
74178;DHT22;62540;48.456;-4.456;2022-09-09T06:44:23;18.84;75.60
74178;DHT22;62540;48.456;-4.456;2022-09-09T06:46:52;18.85;75.55
74178;DHT22;62540;48.456;-4.456;2022-09-09T06:49:17;18.91;75.39
74178;DHT22;62540;48.456;-4.456;2022-09-09T06:51:43;18.91;75.47
74178;DHT22;62540;48.456;-4.456;2022-09-09T06:54:09;18.89;75.18
74178;DHT22;62540;48.456;-4.456;2022-09-09T06:56:36;18.91;75.09
74178;DHT22;62540;48.456;-4.456;2022-09-09T06:59:04;18.91;75.08
74178;DHT22;62540;48.456;-4.456;2022-09-09T07:01:38;18.96;75.36
74178;DHT22;62540;48.456;-4.456;2022-09-09T07:04:06;19.01;75.55
74178;DHT22;62540;48.456;-4.456;2022-09-09T07:06:38;19.14;75.50
74178;DHT22;62540;48.456;-4.456;2022-09-09T07:09:06;19.22;75.40
74178;DHT22;62540;48.456;-4.456;2022-09-09T07:11:41;19.27;75.33
74178;DHT22;62540;48.456;-4.456;2022-09-09T07:14:07;19.35;75.67
74178;DHT22;62540;48.456;-4.456;2022-09-09T07:16:33;19.43;75.29
74178;DHT22;62540;48.456;-4.456;2022-09-09T07:19:02;19.45;75.27
74178;DHT22;62540;48.456;-4.456;2022-09-09T07:21:29;19.49;75.16
74178;DHT22;62540;48.456;-4.456;2022-09-09T07:23:55;19.50;75.38
74178;DHT22;62540;48.456;-4.456;2022-09-09T07:26:23;19.52;75.21
74178;DHT22;62540;48.456;-4.456;2022-09-09T07:28:49;19.54;75.18
74178;DHT22;62540;48.456;-4.456;2022-09-09T07:31:20;19.74;75.11
74178;DHT22;62540;48.456;-4.456;2022-09-09T07:33:47;19.88;74.33
74178;DHT22;62540;48.456;-4.456;2022-09-09T07:36:21;19.88;74.00
74178;DHT22;62540;48.456;-4.456;2022-09-09T07:38:49;19.98;73.78
74178;DHT22;62540;48.456;-4.456;2022-09-09T07:41:18;20.42;73.40
74178;DHT22;62540;48.456;-4.456;2022-09-09T07:43:46;21.06;71.69
74178;DHT22;62540;48.456;-4.456;2022-09-09T07:46:14;21.63;69.75
74178;DHT22;62540;48.456;-4.456;2022-09-09T07:48:50;22.20;68.65
74178;DHT22;62540;48.456;-4.456;2022-09-09T07:51:19;22.64;67.70
74178;DHT22;62540;48.456;-4.456;2022-09-09T07:53:51;22.98;67.34
74178;DHT22;62540;48.456;-4.456;2022-09-09T07:56:18;23.02;65.96
74178;DHT22;62540;48.456;-4.456;2022-09-09T07:58:47;23.22;65.41
74178;DHT22;62540;48.456;-4.456;2022-09-09T08:01:18;23.23;65.31
74178;DHT22;62540;48.456;-4.456;2022-09-09T08:03:53;23.12;65.63
74178;DHT22;62540;48.456;-4.456;2022-09-09T08:06:19;23.06;65.69
74178;DHT22;62540;48.456;-4.456;2022-09-09T08:08:49;22.99;64.77
74178;DHT22;62540;48.456;-4.456;2022-09-09T08:11:17;22.96;65.64
74178;DHT22;62540;48.456;-4.456;2022-09-09T08:13:43;22.87;65.64
74178;DHT22;62540;48.456;-4.456;2022-09-09T08:16:13;22.63;64.83
74178;DHT22;62540;48.456;-4.456;2022-09-09T08:18:39;22.48;65.24
74178;DHT22;62540;48.456;-4.456;2022-09-09T08:21:13;22.27;65.91
74178;DHT22;62540;48.456;-4.456;2022-09-09T08:23:40;22.26;65.97
74178;DHT22;62540;48.456;-4.456;2022-09-09T08:26:24;22.18;66.15
74178;DHT22;62540;48.456;-4.456;2022-09-09T08:28:54;22.50;66.34
74178;DHT22;62540;48.456;-4.456;2022-09-09T08:33:47;22.76;64.94
74178;DHT22;62540;48.456;-4.456;2022-09-09T08:36:15;22.60;66.24
74178;DHT22;62540;48.456;-4.456;2022-09-09T08:38:42;22.53;65.93
74178;DHT22;62540;48.456;-4.456;2022-09-09T08:41:25;22.75;65.01
74178;DHT22;62540;48.456;-4.456;2022-09-09T08:52:29;22.92;65.27
74178;DHT22;62540;48.456;-4.456;2022-09-09T08:57:58;22.88;65.49
74178;DHT22;62540;48.456;-4.456;2022-09-09T09:00:38;22.94;64.67
74178;DHT22;62540;48.456;-4.456;2022-09-09T09:03:19;22.88;63.93
74178;DHT22;62540;48.456;-4.456;2022-09-09T09:06:00;22.69;64.25
74178;DHT22;62540;48.456;-4.456;2022-09-09T09:08:46;22.54;65.30
74178;DHT22;62540;48.456;-4.456;2022-09-09T09:11:16;22.50;66.08
74178;DHT22;62540;48.456;-4.456;2022-09-09T09:13:57;22.33;65.93
74178;DHT22;62540;48.456;-4.456;2022-09-09T09:16:32;22.29;66.94
74178;DHT22;62540;48.456;-4.456;2022-09-09T09:18:59;22.41;67.16
74178;DHT22;62540;48.456;-4.456;2022-09-09T09:23:58;22.79;66.16
74178;DHT22;62540;48.456;-4.456;2022-09-09T09:26:30;22.65;65.82
74178;DHT22;62540;48.456;-4.456;2022-09-09T09:28:59;22.53;66.92
74178;DHT22;62540;48.456;-4.456;2022-09-09T09:31:25;22.41;66.79
74178;DHT22;62540;48.456;-4.456;2022-09-09T09:33:56;22.26;66.50
74178;DHT22;62540;48.456;-4.456;2022-09-09T09:36:34;22.07;67.75
74178;DHT22;62540;48.456;-4.456;2022-09-09T09:39:01;21.99;68.06
74178;DHT22;62540;48.456;-4.456;2022-09-09T09:41:42;21.93;68.72
74178;DHT22;62540;48.456;-4.456;2022-09-09T09:44:31;21.95;69.00
74178;DHT22;62540;48.456;-4.456;2022-09-09T09:47:08;22.09;68.90
74178;DHT22;62540;48.456;-4.456;2022-09-09T09:49:34;22.47;68.42
74178;DHT22;62540;48.456;-4.456;2022-09-09T09:52:03;22.72;67.74
74178;DHT22;62540;48.456;-4.456;2022-09-09T09:54:37;22.68;66.64
74178;DHT22;62540;48.456;-4.456;2022-09-09T09:57:14;22.58;67.09
74178;DHT22;62540;48.456;-4.456;2022-09-09T09:59:41;22.50;67.43
74178;DHT22;62540;48.456;-4.456;2022-09-09T10:02:21;22.33;67.04
74178;DHT22;62540;48.456;-4.456;2022-09-09T10:05:00;21.93;64.77
74178;DHT22;62540;48.456;-4.456;2022-09-09T10:07:26;21.63;64.64
74178;DHT22;62540;48.456;-4.456;2022-09-09T10:10:00;21.38;65.88
74178;DHT22;62540;48.456;-4.456;2022-09-09T10:15:10;21.11;67.84
74178;DHT22;62540;48.456;-4.456;2022-09-09T10:23:09;21.47;68.55
74178;DHT22;62540;48.456;-4.456;2022-09-09T10:31:32;21.76;68.74
74178;DHT22;62540;48.456;-4.456;2022-09-09T10:36:49;22.16;67.46
74178;DHT22;62540;48.456;-4.456;2022-09-09T10:39:35;22.51;67.96
74178;DHT22;62540;48.456;-4.456;2022-09-09T10:42:05;22.72;64.91
74178;DHT22;62540;48.456;-4.456;2022-09-09T10:47:20;22.78;65.10
74178;DHT22;62540;48.456;-4.456;2022-09-09T10:53:34;22.82;63.51
74178;DHT22;62540;48.456;-4.456;2022-09-09T10:55:57;22.91;62.44
74178;DHT22;62540;48.456;-4.456;2022-09-09T10:58:47;22.91;62.50
74178;DHT22;62540;48.456;-4.456;2022-09-09T11:01:20;23.06;63.31
74178;DHT22;62540;48.456;-4.456;2022-09-09T11:03:53;23.24;62.92
74178;DHT22;62540;48.456;-4.456;2022-09-09T11:06:24;23.61;62.66
74178;DHT22;62540;48.456;-4.456;2022-09-09T11:08:53;23.94;63.31
74178;DHT22;62540;48.456;-4.456;2022-09-09T11:11:29;24.32;62.51
74178;DHT22;62540;48.456;-4.456;2022-09-09T11:14:13;24.52;60.36
74178;DHT22;62540;48.456;-4.456;2022-09-09T11:17:00;24.65;59.51
74178;DHT22;62540;48.456;-4.456;2022-09-09T11:19:39;24.66;58.45
74178;DHT22;62540;48.456;-4.456;2022-09-09T11:33:55;26.67;57.42
74178;DHT22;62540;48.456;-4.456;2022-09-09T11:42:06;27.25;52.80
74178;DHT22;62540;48.456;-4.456;2022-09-09T11:44:32;27.19;52.78
74178;DHT22;62540;48.456;-4.456;2022-09-09T11:46:57;26.98;50.45
74178;DHT22;62540;48.456;-4.456;2022-09-09T11:49:29;26.71;51.26
74178;DHT22;62540;48.456;-4.456;2022-09-09T11:52:35;26.33;51.25
74178;DHT22;62540;48.456;-4.456;2022-09-09T11:57:37;26.71;51.66
74178;DHT22;62540;48.456;-4.456;2022-09-09T12:00:04;26.67;48.32
74178;DHT22;62540;48.456;-4.456;2022-09-09T12:02:30;26.85;50.01
74178;DHT22;62540;48.456;-4.456;2022-09-09T12:12:35;27.60;49.61
74178;DHT22;62540;48.456;-4.456;2022-09-09T12:15:18;27.66;49.45
74178;DHT22;62540;48.456;-4.456;2022-09-09T12:17:50;27.57;49.90
74178;DHT22;62540;48.456;-4.456;2022-09-09T12:20:50;27.35;47.61
74178;DHT22;62540;48.456;-4.456;2022-09-09T12:23:40;27.06;49.33
74178;DHT22;62540;48.456;-4.456;2022-09-09T12:28:53;26.82;50.51
74178;DHT22;62540;48.456;-4.456;2022-09-09T12:31:25;26.50;49.76
74178;DHT22;62540;48.456;-4.456;2022-09-09T12:33:53;26.53;49.56
74178;DHT22;62540;48.456;-4.456;2022-09-09T12:36:24;26.51;50.31
74178;DHT22;62540;48.456;-4.456;2022-09-09T12:38:53;26.70;51.25
74178;DHT22;62540;48.456;-4.456;2022-09-09T12:41:25;27.08;50.79
74178;DHT22;62540;48.456;-4.456;2022-09-09T12:43:51;27.19;49.21
74178;DHT22;62540;48.456;-4.456;2022-09-09T12:46:39;26.98;48.54
74178;DHT22;62540;48.456;-4.456;2022-09-09T12:51:49;26.65;50.53
74178;DHT22;62540;48.456;-4.456;2022-09-09T12:54:15;26.87;50.76
74178;DHT22;62540;48.456;-4.456;2022-09-09T12:56:45;27.18;50.53
74178;DHT22;62540;48.456;-4.456;2022-09-09T12:59:27;27.08;48.58
74178;DHT22;62540;48.456;-4.456;2022-09-09T13:01:59;26.85;48.95
74178;DHT22;62540;48.456;-4.456;2022-09-09T13:04:25;26.68;49.57
74178;DHT22;62540;48.456;-4.456;2022-09-09T13:06:50;26.54;48.08
74178;DHT22;62540;48.456;-4.456;2022-09-09T13:09:17;26.47;50.03
74178;DHT22;62540;48.456;-4.456;2022-09-09T13:11:47;26.39;49.65
74178;DHT22;62540;48.456;-4.456;2022-09-09T13:14:19;26.27;50.82
74178;DHT22;62540;48.456;-4.456;2022-09-09T13:16:59;26.24;50.98
74178;DHT22;62540;48.456;-4.456;2022-09-09T13:19:26;26.19;50.95
74178;DHT22;62540;48.456;-4.456;2022-09-09T13:21:55;26.14;49.48
74178;DHT22;62540;48.456;-4.456;2022-09-09T13:24:32;25.96;50.17
74178;DHT22;62540;48.456;-4.456;2022-09-09T13:27:03;26.00;49.70
74178;DHT22;62540;48.456;-4.456;2022-09-09T13:29:31;25.96;50.25
74178;DHT22;62540;48.456;-4.456;2022-09-09T13:32:15;25.95;50.38
74178;DHT22;62540;48.456;-4.456;2022-09-09T13:34:54;26.04;50.53
74178;DHT22;62540;48.456;-4.456;2022-09-09T13:37:26;26.02;50.53
74178;DHT22;62540;48.456;-4.456;2022-09-09T13:39:53;25.88;50.43
74178;DHT22;62540;48.456;-4.456;2022-09-09T13:42:39;25.97;51.02
74178;DHT22;62540;48.456;-4.456;2022-09-09T13:45:05;26.17;51.18
74178;DHT22;62540;48.456;-4.456;2022-09-09T13:47:35;26.07;50.59
74178;DHT22;62540;48.456;-4.456;2022-09-09T13:52:56;26.07;50.95
74178;DHT22;62540;48.456;-4.456;2022-09-09T13:55:27;26.20;51.46
74178;DHT22;62540;48.456;-4.456;2022-09-09T13:58:00;26.07;50.18
74178;DHT22;62540;48.456;-4.456;2022-09-09T14:00:29;26.04;51.32
74178;DHT22;62540;48.456;-4.456;2022-09-09T14:02:55;25.93;50.63
74178;DHT22;62540;48.456;-4.456;2022-09-09T14:05:21;25.79;50.73
74178;DHT22;62540;48.456;-4.456;2022-09-09T14:07:48;25.68;51.90
74178;DHT22;62540;48.456;-4.456;2022-09-09T14:10:14;25.66;52.61
74178;DHT22;62540;48.456;-4.456;2022-09-09T14:12:40;25.55;51.66
74178;DHT22;62540;48.456;-4.456;2022-09-09T14:15:07;25.44;51.17
74178;DHT22;62540;48.456;-4.456;2022-09-09T14:17:34;25.20;50.34
74178;DHT22;62540;48.456;-4.456;2022-09-09T14:20:02;25.10;51.24
74178;DHT22;62540;48.456;-4.456;2022-09-09T14:22:28;25.11;50.96
74178;DHT22;62540;48.456;-4.456;2022-09-09T14:24:54;25.11;51.54
74178;DHT22;62540;48.456;-4.456;2022-09-09T14:27:19;25.16;51.65
74178;DHT22;62540;48.456;-4.456;2022-09-09T14:29:45;25.08;52.35
74178;DHT22;62540;48.456;-4.456;2022-09-09T14:32:11;25.14;52.79
74178;DHT22;62540;48.456;-4.456;2022-09-09T14:34:37;25.08;53.28
74178;DHT22;62540;48.456;-4.456;2022-09-09T14:37:02;24.91;52.54
74178;DHT22;62540;48.456;-4.456;2022-09-09T14:39:28;24.76;53.47
74178;DHT22;62540;48.456;-4.456;2022-09-09T14:41:53;24.63;53.74
74178;DHT22;62540;48.456;-4.456;2022-09-09T14:44:18;24.62;54.09
74178;DHT22;62540;48.456;-4.456;2022-09-09T14:46:44;24.56;54.01
74178;DHT22;62540;48.456;-4.456;2022-09-09T14:49:10;24.62;55.18
74178;DHT22;62540;48.456;-4.456;2022-09-09T14:51:35;24.62;55.06
74178;DHT22;62540;48.456;-4.456;2022-09-09T14:54:01;24.65;54.51
74178;DHT22;62540;48.456;-4.456;2022-09-09T14:56:30;24.65;54.21
74178;DHT22;62540;48.456;-4.456;2022-09-09T14:58:57;24.68;53.72
74178;DHT22;62540;48.456;-4.456;2022-09-09T15:01:24;24.53;54.11
74178;DHT22;62540;48.456;-4.456;2022-09-09T15:03:59;24.48;55.13
74178;DHT22;62540;48.456;-4.456;2022-09-09T15:06:27;24.45;54.53
74178;DHT22;62540;48.456;-4.456;2022-09-09T15:08:53;24.49;55.37
74178;DHT22;62540;48.456;-4.456;2022-09-09T15:11:19;24.62;55.25
74178;DHT22;62540;48.456;-4.456;2022-09-09T15:13:46;24.53;53.90
74178;DHT22;62540;48.456;-4.456;2022-09-09T15:16:17;24.49;54.81
74178;DHT22;62540;48.456;-4.456;2022-09-09T15:18:44;24.55;55.01
74178;DHT22;62540;48.456;-4.456;2022-09-09T15:21:12;24.55;54.25
74178;DHT22;62540;48.456;-4.456;2022-09-09T15:23:37;24.39;53.58
74178;DHT22;62540;48.456;-4.456;2022-09-09T15:26:04;24.32;53.53
74178;DHT22;62540;48.456;-4.456;2022-09-09T15:28:31;24.22;54.55
74178;DHT22;62540;48.456;-4.456;2022-09-09T15:30:57;24.08;55.11
74178;DHT22;62540;48.456;-4.456;2022-09-09T15:33:24;24.07;55.99
74178;DHT22;62540;48.456;-4.456;2022-09-09T15:35:50;24.01;55.97
74178;DHT22;62540;48.456;-4.456;2022-09-09T15:38:16;23.98;55.90
74178;DHT22;62540;48.456;-4.456;2022-09-09T15:40:43;23.93;56.11
74178;DHT22;62540;48.456;-4.456;2022-09-09T15:43:09;23.82;56.45
74178;DHT22;62540;48.456;-4.456;2022-09-09T15:45:36;23.80;56.30
74178;DHT22;62540;48.456;-4.456;2022-09-09T15:48:03;23.80;56.71
74178;DHT22;62540;48.456;-4.456;2022-09-09T15:50:28;23.77;56.53
74178;DHT22;62540;48.456;-4.456;2022-09-09T15:52:58;23.70;56.87
74178;DHT22;62540;48.456;-4.456;2022-09-09T15:55:23;23.56;57.23
74178;DHT22;62540;48.456;-4.456;2022-09-09T15:57:50;23.45;58.01
74178;DHT22;62540;48.456;-4.456;2022-09-09T16:00:18;23.42;58.01
74178;DHT22;62540;48.456;-4.456;2022-09-09T16:02:46;23.33;58.31
74178;DHT22;62540;48.456;-4.456;2022-09-09T16:05:12;23.22;58.58
74178;DHT22;62540;48.456;-4.456;2022-09-09T16:07:37;23.20;58.53
74178;DHT22;62540;48.456;-4.456;2022-09-09T16:10:03;23.20;58.79
74178;DHT22;62540;48.456;-4.456;2022-09-09T16:12:28;23.23;58.73
74178;DHT22;62540;48.456;-4.456;2022-09-09T16:14:54;23.18;59.08
74178;DHT22;62540;48.456;-4.456;2022-09-09T16:17:19;23.24;59.20
74178;DHT22;62540;48.456;-4.456;2022-09-09T16:19:46;23.29;58.98
74178;DHT22;62540;48.456;-4.456;2022-09-09T16:22:11;23.27;58.96
74178;DHT22;62540;48.456;-4.456;2022-09-09T16:24:37;23.18;58.37
74178;DHT22;62540;48.456;-4.456;2022-09-09T16:27:02;23.09;58.25
74178;DHT22;62540;48.456;-4.456;2022-09-09T16:29:28;22.96;58.55
74178;DHT22;62540;48.456;-4.456;2022-09-09T16:31:54;22.99;58.46
74178;DHT22;62540;48.456;-4.456;2022-09-09T16:34:20;22.96;58.53
74178;DHT22;62540;48.456;-4.456;2022-09-09T16:36:47;22.92;58.23
74178;DHT22;62540;48.456;-4.456;2022-09-09T16:39:19;22.81;58.36
74178;DHT22;62540;48.456;-4.456;2022-09-09T16:41:45;22.72;59.39
74178;DHT22;62540;48.456;-4.456;2022-09-09T16:44:14;22.65;59.62
74178;DHT22;62540;48.456;-4.456;2022-09-09T16:46:42;22.67;59.45
74178;DHT22;62540;48.456;-4.456;2022-09-09T16:49:10;22.68;59.84
74178;DHT22;62540;48.456;-4.456;2022-09-09T16:51:41;22.65;60.09
74178;DHT22;62540;48.456;-4.456;2022-09-09T16:54:09;22.69;60.18
74178;DHT22;62540;48.456;-4.456;2022-09-09T16:56:37;22.65;60.12
74178;DHT22;62540;48.456;-4.456;2022-09-09T16:59:06;22.61;60.52
74178;DHT22;62540;48.456;-4.456;2022-09-09T17:01:35;22.53;60.46
74178;DHT22;62540;48.456;-4.456;2022-09-09T17:04:04;22.48;60.82
74178;DHT22;62540;48.456;-4.456;2022-09-09T17:06:31;22.54;60.71
74178;DHT22;62540;48.456;-4.456;2022-09-09T17:09:02;22.51;60.41
74178;DHT22;62540;48.456;-4.456;2022-09-09T17:11:29;22.48;60.39
74178;DHT22;62540;48.456;-4.456;2022-09-09T17:13:55;22.48;59.86
74178;DHT22;62540;48.456;-4.456;2022-09-09T17:16:22;22.39;59.25
74178;DHT22;62540;48.456;-4.456;2022-09-09T17:18:49;22.26;59.33
74178;DHT22;62540;48.456;-4.456;2022-09-09T17:21:17;22.09;59.38
74178;DHT22;62540;48.456;-4.456;2022-09-09T17:23:43;22.00;58.99
74178;DHT22;62540;48.456;-4.456;2022-09-09T17:26:11;21.88;59.58
74178;DHT22;62540;48.456;-4.456;2022-09-09T17:28:38;21.81;60.09
74178;DHT22;62540;48.456;-4.456;2022-09-09T17:31:05;21.74;60.41